sensor_id;sensor_type;location;lat;lon;timestamp;P1;durP1;ratioP1;P2;durP2;ratioP2
22260;SDS011;11299;43.202;27.920;2023-04-01T00:00:27;170.98;;;114.88;;
22260;SDS011;11299;43.202;27.920;2023-04-01T00:02:52;182.05;;;127.95;;
22260;SDS011;11299;43.202;27.920;2023-04-01T00:05:18;184.45;;;126.13;;
22260;SDS011;11299;43.202;27.920;2023-04-01T00:07:43;177.90;;;122.75;;
22260;SDS011;11299;43.202;27.920;2023-04-01T00:10:10;163.93;;;115.00;;
22260;SDS011;11299;43.202;27.920;2023-04-01T00:12:36;158.05;;;110.75;;
22260;SDS011;11299;43.202;27.920;2023-04-01T00:15:03;165.43;;;112.50;;
22260;SDS011;11299;43.202;27.920;2023-04-01T00:17:30;156.07;;;107.80;;
22260;SDS011;11299;43.202;27.920;2023-04-01T00:19:55;146.02;;;101.20;;
22260;SDS011;11299;43.202;27.920;2023-04-01T00:22:21;129.85;;;91.88;;
22260;SDS011;11299;43.202;27.920;2023-04-01T00:24:47;126.20;;;85.80;;
22260;SDS011;11299;43.202;27.920;2023-04-01T00:27:13;118.18;;;79.28;;
22260;SDS011;11299;43.202;27.920;2023-04-01T00:29:41;117.28;;;77.30;;
22260;SDS011;11299;43.202;27.920;2023-04-01T00:32:08;103.57;;;68.55;;
22260;SDS011;11299;43.202;27.920;2023-04-01T00:34:33;93.00;;;60.22;;
22260;SDS011;11299;43.202;27.920;2023-04-01T00:36:59;90.03;;;62.05;;
22260;SDS011;11299;43.202;27.920;2023-04-01T00:39:25;95.32;;;63.25;;
22260;SDS011;11299;43.202;27.920;2023-04-01T00:41:54;101.55;;;65.90;;
22260;SDS011;11299;43.202;27.920;2023-04-01T00:44:26;97.93;;;69.93;;
22260;SDS011;11299;43.202;27.920;2023-04-01T00:46:57;101.22;;;74.25;;
22260;SDS011;11299;43.202;27.920;2023-04-01T00:49:23;107.78;;;78.15;;
22260;SDS011;11299;43.202;27.920;2023-04-01T00:51:53;110.20;;;78.82;;
22260;SDS011;11299;43.202;27.920;2023-04-01T00:54:21;104.85;;;74.07;;
22260;SDS011;11299;43.202;27.920;2023-04-01T00:56:50;100.93;;;69.75;;
22260;SDS011;11299;43.202;27.920;2023-04-01T00:59:31;96.43;;;68.07;;
22260;SDS011;11299;43.202;27.920;2023-04-01T01:02:05;86.22;;;59.17;;
22260;SDS011;11299;43.202;27.920;2023-04-01T01:04:34;88.07;;;63.22;;
22260;SDS011;11299;43.202;27.920;2023-04-01T01:15:49;76.10;;;52.00;;
22260;SDS011;11299;43.202;27.920;2023-04-01T01:24:17;85.38;;;55.58;;
22260;SDS011;11299;43.202;27.920;2023-04-01T01:32:11;78.30;;;50.75;;
22260;SDS011;11299;43.202;27.920;2023-04-01T01:37:45;68.07;;;46.05;;
22260;SDS011;11299;43.202;27.920;2023-04-01T01:40:15;61.67;;;41.22;;
22260;SDS011;11299;43.202;27.920;2023-04-01T01:42:42;62.55;;;39.50;;
22260;SDS011;11299;43.202;27.920;2023-04-01T01:45:16;59.75;;;37.00;;
22260;SDS011;11299;43.202;27.920;2023-04-01T01:47:45;60.67;;;36.65;;
22260;SDS011;11299;43.202;27.920;2023-04-01T01:50:11;56.10;;;35.65;;
22260;SDS011;11299;43.202;27.920;2023-04-01T01:52:38;58.05;;;36.53;;
22260;SDS011;11299;43.202;27.920;2023-04-01T01:55:22;58.70;;;37.80;;
22260;SDS011;11299;43.202;27.920;2023-04-01T02:00:40;63.97;;;39.67;;
22260;SDS011;11299;43.202;27.920;2023-04-01T02:03:09;62.65;;;40.15;;
22260;SDS011;11299;43.202;27.920;2023-04-01T02:05:38;58.80;;;38.28;;
22260;SDS011;11299;43.202;27.920;2023-04-01T02:08:09;62.00;;;37.45;;
22260;SDS011;11299;43.202;27.920;2023-04-01T02:10:40;56.72;;;36.20;;
22260;SDS011;11299;43.202;27.920;2023-04-01T02:13:19;56.22;;;36.55;;
22260;SDS011;11299;43.202;27.920;2023-04-01T02:16:06;55.33;;;34.42;;
22260;SDS011;11299;43.202;27.920;2023-04-01T02:18:45;54.53;;;35.03;;
22260;SDS011;11299;43.202;27.920;2023-04-01T02:21:15;49.40;;;33.35;;
22260;SDS011;11299;43.202;27.920;2023-04-01T02:23:43;58.38;;;35.60;;
22260;SDS011;11299;43.202;27.920;2023-04-01T02:26:10;52.42;;;33.13;;
22260;SDS011;11299;43.202;27.920;2023-04-01T02:28:38;55.92;;;34.50;;
22260;SDS011;11299;43.202;27.920;2023-04-01T02:31:05;49.65;;;32.45;;
22260;SDS011;11299;43.202;27.920;2023-04-01T02:33:32;53.03;;;32.63;;
22260;SDS011;11299;43.202;27.920;2023-04-01T02:35:58;47.75;;;33.13;;
22260;SDS011;11299;43.202;27.920;2023-04-01T02:38:24;55.78;;;35.13;;
22260;SDS011;11299;43.202;27.920;2023-04-01T02:40:52;53.47;;;34.33;;
22260;SDS011;11299;43.202;27.920;2023-04-01T02:43:23;62.88;;;37.38;;
22260;SDS011;11299;43.202;27.920;2023-04-01T02:45:48;65.05;;;36.88;;
22260;SDS011;11299;43.202;27.920;2023-04-01T02:48:14;60.50;;;37.95;;
22260;SDS011;11299;43.202;27.920;2023-04-01T02:50:39;64.28;;;36.65;;
22260;SDS011;11299;43.202;27.920;2023-04-01T02:53:05;49.92;;;32.30;;
22260;SDS011;11299;43.202;27.920;2023-04-01T02:55:31;53.70;;;34.03;;
22260;SDS011;11299;43.202;27.920;2023-04-01T02:57:58;51.55;;;32.25;;
22260;SDS011;11299;43.202;27.920;2023-04-01T03:00:23;52.30;;;32.70;;
22260;SDS011;11299;43.202;27.920;2023-04-01T03:02:50;51.65;;;31.42;;
22260;SDS011;11299;43.202;27.920;2023-04-01T03:05:15;48.47;;;30.58;;
22260;SDS011;11299;43.202;27.920;2023-04-01T03:07:41;47.20;;;31.08;;
22260;SDS011;11299;43.202;27.920;2023-04-01T03:10:06;52.22;;;32.47;;
22260;SDS011;11299;43.202;27.920;2023-04-01T03:12:32;45.75;;;30.50;;
22260;SDS011;11299;43.202;27.920;2023-04-01T03:14:58;47.25;;;30.40;;
22260;SDS011;11299;43.202;27.920;2023-04-01T03:17:23;46.80;;;29.85;;
22260;SDS011;11299;43.202;27.920;2023-04-01T03:19:49;43.53;;;28.15;;
22260;SDS011;11299;43.202;27.920;2023-04-01T03:22:14;40.75;;;28.48;;
22260;SDS011;11299;43.202;27.920;2023-04-01T03:24:40;51.85;;;30.02;;
22260;SDS011;11299;43.202;27.920;2023-04-01T03:27:05;49.80;;;30.77;;
22260;SDS011;11299;43.202;27.920;2023-04-01T03:29:31;45.85;;;28.83;;
22260;SDS011;11299;43.202;27.920;2023-04-01T03:31:56;43.42;;;27.58;;
22260;SDS011;11299;43.202;27.920;2023-04-01T03:34:23;39.35;;;26.50;;
22260;SDS011;11299;43.202;27.920;2023-04-01T03:36:50;40.50;;;29.27;;
22260;SDS011;11299;43.202;27.920;2023-04-01T03:39:16;45.03;;;28.65;;
22260;SDS011;11299;43.202;27.920;2023-04-01T03:41:44;41.67;;;26.33;;
22260;SDS011;11299;43.202;27.920;2023-04-01T03:44:10;46.15;;;29.05;;
22260;SDS011;11299;43.202;27.920;2023-04-01T03:46:35;40.00;;;26.73;;
22260;SDS011;11299;43.202;27.920;2023-04-01T03:49:01;45.10;;;29.58;;
22260;SDS011;11299;43.202;27.920;2023-04-01T03:51:27;43.22;;;27.83;;
22260;SDS011;11299;43.202;27.920;2023-04-01T03:53:52;46.63;;;24.08;;
22260;SDS011;11299;43.202;27.920;2023-04-01T03:56:18;41.35;;;24.40;;
22260;SDS011;11299;43.202;27.920;2023-04-01T03:58:43;42.03;;;27.10;;
22260;SDS011;11299;43.202;27.920;2023-04-01T04:01:16;45.55;;;26.45;;
22260;SDS011;11299;43.202;27.920;2023-04-01T04:03:43;47.63;;;27.50;;
22260;SDS011;11299;43.202;27.920;2023-04-01T04:06:12;41.13;;;25.65;;
22260;SDS011;11299;43.202;27.920;2023-04-01T04:08:38;42.25;;;27.10;;
22260;SDS011;11299;43.202;27.920;2023-04-01T04:11:04;48.63;;;27.63;;
22260;SDS011;11299;43.202;27.920;2023-04-01T04:13:30;43.03;;;28.63;;
22260;SDS011;11299;43.202;27.920;2023-04-01T04:15:55;44.83;;;26.75;;
22260;SDS011;11299;43.202;27.920;2023-04-01T04:18:20;45.92;;;28.70;;
22260;SDS011;11299;43.202;27.920;2023-04-01T04:20:46;49.58;;;26.83;;
22260;SDS011;11299;43.202;27.920;2023-04-01T04:23:15;44.08;;;26.98;;
22260;SDS011;11299;43.202;27.920;2023-04-01T04:25:40;48.65;;;27.08;;
22260;SDS011;11299;43.202;27.920;2023-04-01T04:28:06;42.03;;;26.40;;
22260;SDS011;11299;43.202;27.920;2023-04-01T04:30:31;47.50;;;25.15;;
22260;SDS011;11299;43.202;27.920;2023-04-01T04:32:57;44.55;;;27.27;;
22260;SDS011;11299;43.202;27.920;2023-04-01T04:35:22;54.13;;;26.75;;
22260;SDS011;11299;43.202;27.920;2023-04-01T04:37:48;64.97;;;29.05;;
22260;SDS011;11299;43.202;27.920;2023-04-01T04:40:13;40.08;;;23.80;;
22260;SDS011;11299;43.202;27.920;2023-04-01T04:42:39;38.72;;;24.67;;
22260;SDS011;11299;43.202;27.920;2023-04-01T04:45:05;40.95;;;24.38;;
22260;SDS011;11299;43.202;27.920;2023-04-01T04:47:31;36.83;;;23.55;;
22260;SDS011;11299;43.202;27.920;2023-04-01T04:49:56;32.08;;;19.90;;
22260;SDS011;11299;43.202;27.920;2023-04-01T04:52:22;43.78;;;24.65;;
22260;SDS011;11299;43.202;27.920;2023-04-01T04:54:47;45.47;;;28.95;;
22260;SDS011;11299;43.202;27.920;2023-04-01T04:57:13;42.53;;;27.95;;
22260;SDS011;11299;43.202;27.920;2023-04-01T04:59:39;43.13;;;24.70;;
22260;SDS011;11299;43.202;27.920;2023-04-01T05:02:05;37.75;;;23.88;;
22260;SDS011;11299;43.202;27.920;2023-04-01T05:04:33;41.10;;;24.55;;
22260;SDS011;11299;43.202;27.920;2023-04-01T05:07:00;39.70;;;25.60;;
22260;SDS011;11299;43.202;27.920;2023-04-01T05:09:26;44.53;;;26.48;;
22260;SDS011;11299;43.202;27.920;2023-04-01T05:11:51;42.88;;;26.08;;
22260;SDS011;11299;43.202;27.920;2023-04-01T05:14:17;48.08;;;26.73;;
22260;SDS011;11299;43.202;27.920;2023-04-01T05:16:42;50.97;;;25.65;;
22260;SDS011;11299;43.202;27.920;2023-04-01T05:19:08;55.65;;;27.50;;
22260;SDS011;11299;43.202;27.920;2023-04-01T05:21:33;50.92;;;26.70;;
22260;SDS011;11299;43.202;27.920;2023-04-01T05:23:59;39.25;;;23.40;;
22260;SDS011;11299;43.202;27.920;2023-04-01T05:26:24;39.28;;;24.30;;
22260;SDS011;11299;43.202;27.920;2023-04-01T05:28:49;41.63;;;25.80;;
22260;SDS011;11299;43.202;27.920;2023-04-01T05:31:15;41.45;;;22.52;;
22260;SDS011;11299;43.202;27.920;2023-04-01T05:33:40;39.08;;;22.75;;
22260;SDS011;11299;43.202;27.920;2023-04-01T05:36:13;43.72;;;21.60;;
22260;SDS011;11299;43.202;27.920;2023-04-01T05:38:39;36.63;;;22.58;;
22260;SDS011;11299;43.202;27.920;2023-04-01T05:41:05;43.58;;;23.27;;
22260;SDS011;11299;43.202;27.920;2023-04-01T05:43:31;35.78;;;22.58;;
22260;SDS011;11299;43.202;27.920;2023-04-01T05:45:56;36.53;;;22.15;;
22260;SDS011;11299;43.202;27.920;2023-04-01T05:48:22;34.08;;;22.52;;
22260;SDS011;11299;43.202;27.920;2023-04-01T05:50:48;41.88;;;22.65;;
22260;SDS011;11299;43.202;27.920;2023-04-01T05:53:13;37.60;;;22.55;;
22260;SDS011;11299;43.202;27.920;2023-04-01T05:55:39;35.60;;;21.80;;
22260;SDS011;11299;43.202;27.920;2023-04-01T05:58:04;35.05;;;20.80;;
22260;SDS011;11299;43.202;27.920;2023-04-01T06:00:30;31.58;;;20.35;;
22260;SDS011;11299;43.202;27.920;2023-04-01T06:02:57;33.33;;;19.30;;
22260;SDS011;11299;43.202;27.920;2023-04-01T06:05:24;35.28;;;17.02;;
22260;SDS011;11299;43.202;27.920;2023-04-01T06:07:55;26.42;;;16.73;;
22260;SDS011;11299;43.202;27.920;2023-04-01T06:10:25;26.75;;;15.63;;
22260;SDS011;11299;43.202;27.920;2023-04-01T06:13:05;27.95;;;15.02;;
22260;SDS011;11299;43.202;27.920;2023-04-01T06:15:41;39.20;;;18.55;;
22260;SDS011;11299;43.202;27.920;2023-04-01T06:40:32;24.60;;;16.58;;
22260;SDS011;11299;43.202;27.920;2023-04-01T06:43:25;29.25;;;16.77;;
22260;SDS011;11299;43.202;27.920;2023-04-01T06:51:22;27.60;;;17.08;;
22260;SDS011;11299;43.202;27.920;2023-04-01T06:56:31;25.65;;;14.23;;
22260;SDS011;11299;43.202;27.920;2023-04-01T06:58:58;20.52;;;12.32;;
22260;SDS011;11299;43.202;27.920;2023-04-01T07:01:37;17.63;;;11.43;;
22260;SDS011;11299;43.202;27.920;2023-04-01T07:06:59;18.13;;;10.13;;
22260;SDS011;11299;43.202;27.920;2023-04-01T07:09:32;19.00;;;11.38;;
22260;SDS011;11299;43.202;27.920;2023-04-01T07:12:09;20.73;;;11.57;;
22260;SDS011;11299;43.202;27.920;2023-04-01T07:14:41;17.00;;;11.10;;
22260;SDS011;11299;43.202;27.920;2023-04-01T07:17:09;14.30;;;9.80;;
22260;SDS011;11299;43.202;27.920;2023-04-01T07:24:46;11.70;;;7.78;;
22260;SDS011;11299;43.202;27.920;2023-04-01T07:27:13;10.27;;;7.20;;
22260;SDS011;11299;43.202;27.920;2023-04-01T07:29:40;16.35;;;8.00;;
22260;SDS011;11299;43.202;27.920;2023-04-01T08:00:04;10.65;;;5.95;;
22260;SDS011;11299;43.202;27.920;2023-04-01T08:02:44;11.70;;;6.20;;
22260;SDS011;11299;43.202;27.920;2023-04-01T08:05:28;11.15;;;5.80;;
22260;SDS011;11299;43.202;27.920;2023-04-01T08:08:40;12.38;;;6.55;;
22260;SDS011;11299;43.202;27.920;2023-04-01T08:11:22;16.63;;;6.32;;
22260;SDS011;11299;43.202;27.920;2023-04-01T08:16:52;11.43;;;5.55;;
22260;SDS011;11299;43.202;27.920;2023-04-01T08:21:54;11.65;;;5.80;;
22260;SDS011;11299;43.202;27.920;2023-04-01T08:24:42;10.30;;;5.32;;
22260;SDS011;11299;43.202;27.920;2023-04-01T08:27:12;11.32;;;4.60;;
22260;SDS011;11299;43.202;27.920;2023-04-01T08:32:35;13.55;;;5.18;;
22260;SDS011;11299;43.202;27.920;2023-04-01T08:35:49;10.23;;;4.18;;
22260;SDS011;11299;43.202;27.920;2023-04-01T08:37:59;9.32;;;4.10;;
22260;SDS011;11299;43.202;27.920;2023-04-01T08:56:47;11.10;;;4.10;;
22260;SDS011;11299;43.202;27.920;2023-04-01T09:02:18;10.18;;;4.63;;
22260;SDS011;11299;43.202;27.920;2023-04-01T09:24:55;14.65;;;4.93;;
22260;SDS011;11299;43.202;27.920;2023-04-01T09:36:33;11.90;;;4.97;;
22260;SDS011;11299;43.202;27.920;2023-04-01T09:44:57;11.10;;;4.78;;
22260;SDS011;11299;43.202;27.920;2023-04-01T10:00:39;16.00;;;4.93;;
22260;SDS011;11299;43.202;27.920;2023-04-01T11:27:49;12.90;;;6.03;;
22260;SDS011;11299;43.202;27.920;2023-04-01T11:30:33;13.52;;;6.45;;
22260;SDS011;11299;43.202;27.920;2023-04-01T11:33:19;15.32;;;6.00;;
22260;SDS011;11299;43.202;27.920;2023-04-01T11:44:03;12.00;;;5.07;;
22260;SDS011;11299;43.202;27.920;2023-04-01T11:47:06;15.38;;;6.60;;
22260;SDS011;11299;43.202;27.920;2023-04-01T11:49:46;12.23;;;6.22;;
22260;SDS011;11299;43.202;27.920;2023-04-01T11:52:19;15.00;;;6.40;;
22260;SDS011;11299;43.202;27.920;2023-04-01T11:57:46;13.30;;;5.72;;
22260;SDS011;11299;43.202;27.920;2023-04-01T12:05:58;9.73;;;4.93;;
22260;SDS011;11299;43.202;27.920;2023-04-01T12:36:13;12.68;;;6.50;;
22260;SDS011;11299;43.202;27.920;2023-04-01T12:41:49;13.30;;;6.47;;
22260;SDS011;11299;43.202;27.920;2023-04-01T12:47:56;18.20;;;6.47;;
22260;SDS011;11299;43.202;27.920;2023-04-01T12:50:33;16.23;;;6.70;;
22260;SDS011;11299;43.202;27.920;2023-04-01T12:54:32;17.17;;;6.72;;
22260;SDS011;11299;43.202;27.920;2023-04-01T13:08:55;15.68;;;7.32;;
22260;SDS011;11299;43.202;27.920;2023-04-01T13:25:16;14.40;;;6.40;;
22260;SDS011;11299;43.202;27.920;2023-04-01T13:28:10;24.17;;;7.53;;
22260;SDS011;11299;43.202;27.920;2023-04-01T13:34:00;10.95;;;6.10;;
22260;SDS011;11299;43.202;27.920;2023-04-01T13:42:43;11.57;;;5.78;;
22260;SDS011;11299;43.202;27.920;2023-04-01T13:45:17;17.98;;;6.30;;
22260;SDS011;11299;43.202;27.920;2023-04-01T14:01:46;13.68;;;5.50;;
22260;SDS011;11299;43.202;27.920;2023-04-01T14:15:08;15.75;;;6.47;;
22260;SDS011;11299;43.202;27.920;2023-04-01T14:31:18;12.93;;;6.32;;
22260;SDS011;11299;43.202;27.920;2023-04-01T14:51:49;15.57;;;6.05;;
22260;SDS011;11299;43.202;27.920;2023-04-01T14:54:36;19.10;;;7.45;;
22260;SDS011;11299;43.202;27.920;2023-04-01T15:00:16;19.23;;;6.00;;
22260;SDS011;11299;43.202;27.920;2023-04-01T15:03:26;21.42;;;6.25;;
22260;SDS011;11299;43.202;27.920;2023-04-01T15:05:49;15.77;;;6.25;;
22260;SDS011;11299;43.202;27.920;2023-04-01T15:13:45;17.05;;;5.38;;
22260;SDS011;11299;43.202;27.920;2023-04-01T15:16:54;13.57;;;4.70;;
22260;SDS011;11299;43.202;27.920;2023-04-01T15:19:31;10.00;;;4.90;;
22260;SDS011;11299;43.202;27.920;2023-04-01T15:22:13;11.90;;;4.45;;
22260;SDS011;11299;43.202;27.920;2023-04-01T15:31:08;19.73;;;5.50;;
22260;SDS011;11299;43.202;27.920;2023-04-01T15:36:20;12.18;;;5.28;;
22260;SDS011;11299;43.202;27.920;2023-04-01T15:49:47;16.73;;;5.65;;
22260;SDS011;11299;43.202;27.920;2023-04-01T15:52:42;14.50;;;5.80;;
22260;SDS011;11299;43.202;27.920;2023-04-01T15:55:48;18.08;;;5.40;;
22260;SDS011;11299;43.202;27.920;2023-04-01T16:04:21;14.50;;;6.15;;
22260;SDS011;11299;43.202;27.920;2023-04-01T16:23:30;21.60;;;6.68;;
22260;SDS011;11299;43.202;27.920;2023-04-01T16:29:25;21.73;;;7.70;;
22260;SDS011;11299;43.202;27.920;2023-04-01T16:34:30;19.55;;;9.65;;
22260;SDS011;11299;43.202;27.920;2023-04-01T16:37:03;24.30;;;8.63;;
22260;SDS011;11299;43.202;27.920;2023-04-01T16:45:17;21.08;;;8.60;;
22260;SDS011;11299;43.202;27.920;2023-04-01T16:47:50;20.33;;;7.63;;
22260;SDS011;11299;43.202;27.920;2023-04-01T16:50:21;21.70;;;7.13;;
22260;SDS011;11299;43.202;27.920;2023-04-01T16:52:59;20.05;;;8.15;;
22260;SDS011;11299;43.202;27.920;2023-04-01T16:58:27;22.45;;;7.88;;
22260;SDS011;11299;43.202;27.920;2023-04-01T17:01:01;21.55;;;9.05;;
22260;SDS011;11299;43.202;27.920;2023-04-01T17:06:49;22.70;;;9.02;;
22260;SDS011;11299;43.202;27.920;2023-04-01T17:18:04;20.73;;;8.68;;
22260;SDS011;11299;43.202;27.920;2023-04-01T17:26:59;19.77;;;7.82;;
22260;SDS011;11299;43.202;27.920;2023-04-01T17:45:30;22.25;;;8.43;;
22260;SDS011;11299;43.202;27.920;2023-04-01T17:50:47;24.13;;;11.00;;
22260;SDS011;11299;43.202;27.920;2023-04-01T17:59:20;29.55;;;11.30;;
22260;SDS011;11299;43.202;27.920;2023-04-01T18:07:33;24.75;;;10.82;;
22260;SDS011;11299;43.202;27.920;2023-04-01T18:10:11;28.70;;;12.32;;
22260;SDS011;11299;43.202;27.920;2023-04-01T18:13:17;23.83;;;11.25;;
22260;SDS011;11299;43.202;27.920;2023-04-01T18:23:46;34.75;;;13.30;;
22260;SDS011;11299;43.202;27.920;2023-04-01T18:26:30;20.00;;;10.30;;
22260;SDS011;11299;43.202;27.920;2023-04-01T18:35:21;37.35;;;17.35;;
22260;SDS011;11299;43.202;27.920;2023-04-01T18:37:53;30.75;;;13.45;;
22260;SDS011;11299;43.202;27.920;2023-04-01T18:40:46;32.22;;;15.05;;
22260;SDS011;11299;43.202;27.920;2023-04-01T18:43:53;27.25;;;9.98;;
22260;SDS011;11299;43.202;27.920;2023-04-01T18:46:31;22.38;;;8.65;;
22260;SDS011;11299;43.202;27.920;2023-04-01T18:51:53;24.67;;;11.07;;
22260;SDS011;11299;43.202;27.920;2023-04-01T18:57:26;19.40;;;8.75;;
22260;SDS011;11299;43.202;27.920;2023-04-01T19:00:04;15.32;;;5.82;;
22260;SDS011;11299;43.202;27.920;2023-04-01T19:03:01;7.13;;;4.68;;
22260;SDS011;11299;43.202;27.920;2023-04-01T19:05:36;6.15;;;3.90;;
22260;SDS011;11299;43.202;27.920;2023-04-01T19:21:22;6.43;;;4.13;;
22260;SDS011;11299;43.202;27.920;2023-04-01T19:24:55;6.65;;;4.45;;
22260;SDS011;11299;43.202;27.920;2023-04-01T19:40:52;13.30;;;7.65;;
22260;SDS011;11299;43.202;27.920;2023-04-01T19:43:35;13.20;;;7.63;;
22260;SDS011;11299;43.202;27.920;2023-04-01T19:46:14;15.38;;;8.52;;
22260;SDS011;11299;43.202;27.920;2023-04-01T19:51:39;16.30;;;8.73;;
22260;SDS011;11299;43.202;27.920;2023-04-01T19:54:13;15.68;;;9.13;;
22260;SDS011;11299;43.202;27.920;2023-04-01T20:05:29;15.93;;;7.68;;
22260;SDS011;11299;43.202;27.920;2023-04-01T20:08:00;10.00;;;5.97;;
22260;SDS011;11299;43.202;27.920;2023-04-01T20:10:45;8.15;;;5.50;;
22260;SDS011;11299;43.202;27.920;2023-04-01T20:16:23;12.32;;;5.53;;
22260;SDS011;11299;43.202;27.920;2023-04-01T20:19:09;8.90;;;5.78;;
22260;SDS011;11299;43.202;27.920;2023-04-01T20:21:40;7.43;;;4.68;;
22260;SDS011;11299;43.202;27.920;2023-04-01T20:26:39;7.93;;;4.03;;
22260;SDS011;11299;43.202;27.920;2023-04-01T20:29:18;10.23;;;4.38;;
22260;SDS011;11299;43.202;27.920;2023-04-01T20:45:33;8.20;;;3.50;;
22260;SDS011;11299;43.202;27.920;2023-04-01T21:11:56;10.05;;;6.57;;
22260;SDS011;11299;43.202;27.920;2023-04-01T21:17:12;12.73;;;9.82;;
22260;SDS011;11299;43.202;27.920;2023-04-01T21:19:51;17.38;;;10.75;;
22260;SDS011;11299;43.202;27.920;2023-04-01T21:38:43;24.48;;;16.35;;
22260;SDS011;11299;43.202;27.920;2023-04-01T22:05:46;33.47;;;21.17;;
22260;SDS011;11299;43.202;27.920;2023-04-01T22:17:00;30.23;;;20.00;;
22260;SDS011;11299;43.202;27.920;2023-04-01T22:22:47;29.38;;;20.02;;
22260;SDS011;11299;43.202;27.920;2023-04-01T22:31:05;32.40;;;20.17;;
22260;SDS011;11299;43.202;27.920;2023-04-01T22:39:00;27.90;;;19.02;;
22260;SDS011;11299;43.202;27.920;2023-04-01T22:41:41;33.10;;;19.50;;
22260;SDS011;11299;43.202;27.920;2023-04-01T22:44:43;26.50;;;17.53;;
22260;SDS011;11299;43.202;27.920;2023-04-01T22:47:26;29.35;;;18.95;;
22260;SDS011;11299;43.202;27.920;2023-04-01T22:50:19;28.02;;;17.85;;
22260;SDS011;11299;43.202;27.920;2023-04-01T22:52:51;25.63;;;18.00;;
22260;SDS011;11299;43.202;27.920;2023-04-01T22:55:29;23.27;;;17.15;;
22260;SDS011;11299;43.202;27.920;2023-04-01T22:57:58;21.85;;;15.63;;
22260;SDS011;11299;43.202;27.920;2023-04-01T23:00:45;20.67;;;14.23;;
22260;SDS011;11299;43.202;27.920;2023-04-01T23:05:57;21.17;;;15.52;;
22260;SDS011;11299;43.202;27.920;2023-04-01T23:11:29;26.40;;;16.13;;
22260;SDS011;11299;43.202;27.920;2023-04-01T23:16:43;16.35;;;9.52;;
22260;SDS011;11299;43.202;27.920;2023-04-01T23:19:25;8.80;;;6.18;;
22260;SDS011;11299;43.202;27.920;2023-04-01T23:22:16;7.40;;;4.55;;
22260;SDS011;11299;43.202;27.920;2023-04-01T23:27:31;5.28;;;3.92;;
22260;SDS011;11299;43.202;27.920;2023-04-01T23:30:00;5.25;;;4.00;;
22260;SDS011;11299;43.202;27.920;2023-04-01T23:32:25;7.38;;;3.97;;
22260;SDS011;11299;43.202;27.920;2023-04-01T23:34:53;4.53;;;3.20;;
22260;SDS011;11299;43.202;27.920;2023-04-01T23:37:21;4.40;;;2.97;;
22260;SDS011;11299;43.202;27.920;2023-04-01T23:39:57;3.65;;;2.47;;
22260;SDS011;11299;43.202;27.920;2023-04-01T23:42:33;2.63;;;2.00;;
22260;SDS011;11299;43.202;27.920;2023-04-01T23:45:11;2.22;;;1.63;;
22260;SDS011;11299;43.202;27.920;2023-04-01T23:47:42;2.67;;;1.75;;
22260;SDS011;11299;43.202;27.920;2023-04-01T23:50:16;3.85;;;1.55;;
22260;SDS011;11299;43.202;27.920;2023-04-01T23:52:46;3.28;;;1.50;;
22260;SDS011;11299;43.202;27.920;2023-04-01T23:55:24;2.25;;;1.45;;
22260;SDS011;11299;43.202;27.920;2023-04-01T23:58:25;1.02;;;0.90;;
